sensor_id;sensor_type;location;lat;lon;timestamp;P1;durP1;ratioP1;P2;durP2;ratioP2
16804;SDS011;8520;50.102;20.010;2023-05-24T15:23:19;72.18;;;68.00;;
16804;SDS011;8520;50.102;20.010;2023-05-24T15:25:47;72.20;;;67.73;;
16804;SDS011;8520;50.102;20.010;2023-05-24T15:28:16;70.57;;;66.38;;
16804;SDS011;8520;50.102;20.010;2023-05-24T15:30:45;71.97;;;67.47;;
16804;SDS011;8520;50.102;20.010;2023-05-24T15:33:13;66.40;;;62.20;;
16804;SDS011;8520;50.102;20.010;2023-05-24T15:35:42;61.33;;;57.47;;
16804;SDS011;8520;50.102;20.010;2023-05-24T15:38:10;57.72;;;54.17;;
16804;SDS011;8520;50.102;20.010;2023-05-24T15:40:41;58.28;;;54.33;;
16804;SDS011;8520;50.102;20.010;2023-05-24T15:43:09;57.25;;;53.65;;
16804;SDS011;8520;50.102;20.010;2023-05-24T15:45:37;57.33;;;53.83;;
16804;SDS011;8520;50.102;20.010;2023-05-24T15:48:05;54.00;;;50.33;;
16804;SDS011;8520;50.102;20.010;2023-05-24T15:50:34;52.03;;;48.38;;
16804;SDS011;8520;50.102;20.010;2023-05-24T15:53:22;50.93;;;47.70;;
16804;SDS011;8520;50.102;20.010;2023-05-24T15:55:52;51.80;;;48.38;;
16804;SDS011;8520;50.102;20.010;2023-05-24T15:58:22;49.90;;;46.70;;
16804;SDS011;8520;50.102;20.010;2023-05-24T16:00:51;49.05;;;46.05;;
16804;SDS011;8520;50.102;20.010;2023-05-24T16:03:19;49.40;;;46.40;;
16804;SDS011;8520;50.102;20.010;2023-05-24T16:05:48;47.67;;;44.45;;
16804;SDS011;8520;50.102;20.010;2023-05-24T16:08:17;47.75;;;44.67;;
16804;SDS011;8520;50.102;20.010;2023-05-24T16:10:45;48.45;;;45.05;;
16804;SDS011;8520;50.102;20.010;2023-05-24T16:13:15;48.60;;;45.20;;
16804;SDS011;8520;50.102;20.010;2023-05-24T16:15:44;49.22;;;45.90;;
16804;SDS011;8520;50.102;20.010;2023-05-24T16:18:16;48.72;;;45.53;;
16804;SDS011;8520;50.102;20.010;2023-05-24T16:20:46;46.50;;;43.25;;
16804;SDS011;8520;50.102;20.010;2023-05-24T16:23:16;46.92;;;43.92;;
16804;SDS011;8520;50.102;20.010;2023-05-24T16:25:48;46.53;;;43.58;;
16804;SDS011;8520;50.102;20.010;2023-05-24T16:28:18;47.50;;;44.33;;
16804;SDS011;8520;50.102;20.010;2023-05-24T16:30:49;45.30;;;42.40;;
16804;SDS011;8520;50.102;20.010;2023-05-24T16:33:21;47.08;;;43.88;;
16804;SDS011;8520;50.102;20.010;2023-05-24T16:35:50;47.47;;;44.20;;
16804;SDS011;8520;50.102;20.010;2023-05-24T16:38:22;47.30;;;44.05;;
16804;SDS011;8520;50.102;20.010;2023-05-24T16:40:51;48.40;;;45.00;;
16804;SDS011;8520;50.102;20.010;2023-05-24T16:43:21;48.70;;;45.28;;
16804;SDS011;8520;50.102;20.010;2023-05-24T16:45:50;47.30;;;44.08;;
16804;SDS011;8520;50.102;20.010;2023-05-24T16:48:18;47.47;;;44.28;;
16804;SDS011;8520;50.102;20.010;2023-05-24T16:50:48;47.78;;;44.53;;
16804;SDS011;8520;50.102;20.010;2023-05-24T16:53:19;48.67;;;45.20;;
16804;SDS011;8520;50.102;20.010;2023-05-24T16:55:50;49.08;;;45.70;;
16804;SDS011;8520;50.102;20.010;2023-05-24T16:58:19;49.28;;;46.08;;
16804;SDS011;8520;50.102;20.010;2023-05-24T17:00:49;51.17;;;47.58;;
16804;SDS011;8520;50.102;20.010;2023-05-24T17:03:20;50.15;;;46.75;;
16804;SDS011;8520;50.102;20.010;2023-05-24T17:05:54;52.63;;;48.83;;
16804;SDS011;8520;50.102;20.010;2023-05-24T17:08:26;53.53;;;49.97;;
16804;SDS011;8520;50.102;20.010;2023-05-24T17:10:54;51.10;;;47.70;;
16804;SDS011;8520;50.102;20.010;2023-05-24T17:13:23;51.83;;;48.45;;
16804;SDS011;8520;50.102;20.010;2023-05-24T17:15:54;47.58;;;44.03;;
16804;SDS011;8520;50.102;20.010;2023-05-24T17:18:23;45.85;;;43.15;;
16804;SDS011;8520;50.102;20.010;2023-05-24T17:20:55;45.75;;;42.70;;
16804;SDS011;8520;50.102;20.010;2023-05-24T17:23:23;44.08;;;41.50;;
16804;SDS011;8520;50.102;20.010;2023-05-24T17:25:52;43.05;;;40.55;;
16804;SDS011;8520;50.102;20.010;2023-05-24T17:28:24;41.28;;;38.97;;
16804;SDS011;8520;50.102;20.010;2023-05-24T17:31:01;40.13;;;38.08;;
16804;SDS011;8520;50.102;20.010;2023-05-24T17:33:29;40.03;;;37.63;;
16804;SDS011;8520;50.102;20.010;2023-05-24T17:35:58;41.33;;;39.03;;
16804;SDS011;8520;50.102;20.010;2023-05-24T17:38:28;41.30;;;39.08;;
16804;SDS011;8520;50.102;20.010;2023-05-24T17:40:58;40.47;;;38.28;;
16804;SDS011;8520;50.102;20.010;2023-05-24T17:43:28;39.75;;;37.67;;
16804;SDS011;8520;50.102;20.010;2023-05-24T17:45:58;40.63;;;38.03;;
16804;SDS011;8520;50.102;20.010;2023-05-24T17:48:33;40.47;;;38.17;;
16804;SDS011;8520;50.102;20.010;2023-05-24T17:51:02;40.55;;;38.35;;
16804;SDS011;8520;50.102;20.010;2023-05-24T17:53:31;38.63;;;36.50;;
16804;SDS011;8520;50.102;20.010;2023-05-24T17:56:01;41.17;;;38.88;;
16804;SDS011;8520;50.102;20.010;2023-05-24T17:58:29;42.13;;;39.60;;
16804;SDS011;8520;50.102;20.010;2023-05-24T18:01:04;39.65;;;37.58;;
16804;SDS011;8520;50.102;20.010;2023-05-24T18:03:33;41.17;;;38.97;;
16804;SDS011;8520;50.102;20.010;2023-05-24T18:06:03;41.03;;;38.72;;
16804;SDS011;8520;50.102;20.010;2023-05-24T18:08:33;39.90;;;37.78;;
16804;SDS011;8520;50.102;20.010;2023-05-24T18:11:08;41.67;;;38.95;;
16804;SDS011;8520;50.102;20.010;2023-05-24T18:13:39;44.63;;;41.65;;
16804;SDS011;8520;50.102;20.010;2023-05-24T18:16:09;46.95;;;44.17;;
16804;SDS011;8520;50.102;20.010;2023-05-24T18:18:38;49.70;;;46.50;;
16804;SDS011;8520;50.102;20.010;2023-05-24T18:21:09;49.40;;;46.08;;
16804;SDS011;8520;50.102;20.010;2023-05-24T18:23:38;48.40;;;45.45;;
16804;SDS011;8520;50.102;20.010;2023-05-24T18:26:07;50.60;;;47.40;;
16804;SDS011;8520;50.102;20.010;2023-05-24T18:28:37;50.53;;;47.33;;
16804;SDS011;8520;50.102;20.010;2023-05-24T18:31:07;52.17;;;48.88;;
16804;SDS011;8520;50.102;20.010;2023-05-24T18:33:37;51.95;;;49.03;;
16804;SDS011;8520;50.102;20.010;2023-05-24T18:36:06;53.88;;;50.78;;
16804;SDS011;8520;50.102;20.010;2023-05-24T18:38:34;53.53;;;50.20;;
16804;SDS011;8520;50.102;20.010;2023-05-24T18:41:06;53.45;;;50.15;;
16804;SDS011;8520;50.102;20.010;2023-05-24T18:43:35;54.50;;;51.03;;
16804;SDS011;8520;50.102;20.010;2023-05-24T18:46:03;56.07;;;52.57;;
16804;SDS011;8520;50.102;20.010;2023-05-24T18:48:33;57.40;;;54.08;;
16804;SDS011;8520;50.102;20.010;2023-05-24T18:51:01;55.30;;;52.25;;
16804;SDS011;8520;50.102;20.010;2023-05-24T18:53:30;56.75;;;52.72;;
16804;SDS011;8520;50.102;20.010;2023-05-24T18:55:58;54.35;;;51.03;;
16804;SDS011;8520;50.102;20.010;2023-05-24T18:58:26;54.78;;;51.58;;
16804;SDS011;8520;50.102;20.010;2023-05-24T19:00:54;51.97;;;49.13;;
16804;SDS011;8520;50.102;20.010;2023-05-24T19:03:22;53.70;;;50.50;;
16804;SDS011;8520;50.102;20.010;2023-05-24T19:05:52;53.27;;;50.40;;
16804;SDS011;8520;50.102;20.010;2023-05-24T19:08:20;53.00;;;50.00;;
16804;SDS011;8520;50.102;20.010;2023-05-24T19:10:48;52.05;;;49.22;;
16804;SDS011;8520;50.102;20.010;2023-05-24T19:13:16;49.78;;;46.75;;
16804;SDS011;8520;50.102;20.010;2023-05-24T19:15:45;46.00;;;43.37;;
16804;SDS011;8520;50.102;20.010;2023-05-24T19:18:13;44.42;;;41.97;;
16804;SDS011;8520;50.102;20.010;2023-05-24T19:20:41;43.63;;;41.13;;
16804;SDS011;8520;50.102;20.010;2023-05-24T19:23:11;42.30;;;39.88;;
16804;SDS011;8520;50.102;20.010;2023-05-24T19:25:39;42.53;;;40.13;;
16804;SDS011;8520;50.102;20.010;2023-05-24T19:28:09;41.73;;;39.33;;
16804;SDS011;8520;50.102;20.010;2023-05-24T19:30:37;43.20;;;40.73;;
16804;SDS011;8520;50.102;20.010;2023-05-24T19:33:05;42.93;;;40.57;;
16804;SDS011;8520;50.102;20.010;2023-05-24T19:35:34;44.25;;;41.72;;
16804;SDS011;8520;50.102;20.010;2023-05-24T19:38:02;43.30;;;40.87;;
16804;SDS011;8520;50.102;20.010;2023-05-24T19:40:31;44.57;;;41.97;;
16804;SDS011;8520;50.102;20.010;2023-05-24T19:42:59;44.37;;;41.77;;
16804;SDS011;8520;50.102;20.010;2023-05-24T19:45:28;44.80;;;42.17;;
16804;SDS011;8520;50.102;20.010;2023-05-24T19:47:56;45.00;;;42.40;;
16804;SDS011;8520;50.102;20.010;2023-05-24T19:50:24;45.60;;;42.63;;
16804;SDS011;8520;50.102;20.010;2023-05-24T19:52:55;45.37;;;42.70;;
16804;SDS011;8520;50.102;20.010;2023-05-24T19:55:24;47.60;;;44.57;;
16804;SDS011;8520;50.102;20.010;2023-05-24T19:57:53;47.83;;;45.03;;
16804;SDS011;8520;50.102;20.010;2023-05-24T20:00:21;47.43;;;44.73;;
16804;SDS011;8520;50.102;20.010;2023-05-24T20:02:56;49.07;;;46.17;;
16804;SDS011;8520;50.102;20.010;2023-05-24T20:05:25;46.93;;;44.27;;
16804;SDS011;8520;50.102;20.010;2023-05-24T20:07:53;46.07;;;43.53;;
16804;SDS011;8520;50.102;20.010;2023-05-24T20:10:21;46.60;;;43.93;;
16804;SDS011;8520;50.102;20.010;2023-05-24T20:12:49;47.83;;;44.93;;
16804;SDS011;8520;50.102;20.010;2023-05-24T20:15:19;49.40;;;46.17;;
16804;SDS011;8520;50.102;20.010;2023-05-24T20:17:53;48.53;;;45.67;;
16804;SDS011;8520;50.102;20.010;2023-05-24T20:20:21;49.17;;;46.37;;
16804;SDS011;8520;50.102;20.010;2023-05-24T20:22:50;49.50;;;46.67;;
16804;SDS011;8520;50.102;20.010;2023-05-24T20:25:18;51.83;;;48.70;;
16804;SDS011;8520;50.102;20.010;2023-05-24T20:27:46;52.20;;;49.03;;
16804;SDS011;8520;50.102;20.010;2023-05-24T20:30:15;51.53;;;48.40;;
16804;SDS011;8520;50.102;20.010;2023-05-24T20:32:45;51.50;;;48.40;;
16804;SDS011;8520;50.102;20.010;2023-05-24T20:35:14;53.67;;;50.27;;
16804;SDS011;8520;50.102;20.010;2023-05-24T20:37:42;52.93;;;49.63;;
16804;SDS011;8520;50.102;20.010;2023-05-24T20:40:10;53.60;;;50.23;;
16804;SDS011;8520;50.102;20.010;2023-05-24T20:42:46;54.23;;;50.90;;
16804;SDS011;8520;50.102;20.010;2023-05-24T20:45:14;52.87;;;49.87;;
16804;SDS011;8520;50.102;20.010;2023-05-24T20:47:43;53.03;;;49.97;;
16804;SDS011;8520;50.102;20.010;2023-05-24T20:50:13;52.60;;;49.53;;
16804;SDS011;8520;50.102;20.010;2023-05-24T20:52:41;52.50;;;49.27;;
16804;SDS011;8520;50.102;20.010;2023-05-24T20:55:09;52.77;;;49.63;;
16804;SDS011;8520;50.102;20.010;2023-05-24T20:57:37;53.50;;;50.20;;
16804;SDS011;8520;50.102;20.010;2023-05-24T21:00:06;53.77;;;50.30;;
16804;SDS011;8520;50.102;20.010;2023-05-24T21:02:35;54.20;;;50.87;;
16804;SDS011;8520;50.102;20.010;2023-05-24T21:05:05;53.13;;;49.93;;
16804;SDS011;8520;50.102;20.010;2023-05-24T21:07:35;53.80;;;50.03;;
16804;SDS011;8520;50.102;20.010;2023-05-24T21:10:03;52.57;;;49.30;;
16804;SDS011;8520;50.102;20.010;2023-05-24T21:12:33;51.57;;;48.47;;
16804;SDS011;8520;50.102;20.010;2023-05-24T21:15:01;51.07;;;47.87;;
16804;SDS011;8520;50.102;20.010;2023-05-24T21:17:29;52.37;;;48.90;;
16804;SDS011;8520;50.102;20.010;2023-05-24T21:19:57;52.27;;;49.07;;
16804;SDS011;8520;50.102;20.010;2023-05-24T21:22:26;51.97;;;48.77;;
16804;SDS011;8520;50.102;20.010;2023-05-24T21:24:55;51.23;;;48.20;;
16804;SDS011;8520;50.102;20.010;2023-05-24T21:27:23;51.80;;;48.50;;
16804;SDS011;8520;50.102;20.010;2023-05-24T21:29:52;52.27;;;49.17;;
16804;SDS011;8520;50.102;20.010;2023-05-24T21:32:21;52.93;;;49.73;;
16804;SDS011;8520;50.102;20.010;2023-05-24T21:34:49;52.77;;;49.27;;
16804;SDS011;8520;50.102;20.010;2023-05-24T21:37:17;52.10;;;48.80;;
16804;SDS011;8520;50.102;20.010;2023-05-24T21:39:45;51.53;;;48.50;;
16804;SDS011;8520;50.102;20.010;2023-05-24T21:42:15;52.60;;;49.10;;
16804;SDS011;8520;50.102;20.010;2023-05-24T21:44:43;52.20;;;48.87;;
16804;SDS011;8520;50.102;20.010;2023-05-24T21:47:11;51.57;;;48.27;;
16804;SDS011;8520;50.102;20.010;2023-05-24T21:49:39;51.90;;;48.53;;
16804;SDS011;8520;50.102;20.010;2023-05-24T21:52:07;49.97;;;46.83;;
16804;SDS011;8520;50.102;20.010;2023-05-24T21:54:35;51.63;;;48.63;;
16804;SDS011;8520;50.102;20.010;2023-05-24T21:57:03;53.17;;;49.83;;
16804;SDS011;8520;50.102;20.010;2023-05-24T21:59:34;53.43;;;50.23;;
16804;SDS011;8520;50.102;20.010;2023-05-24T22:02:02;53.97;;;50.67;;
16804;SDS011;8520;50.102;20.010;2023-05-24T22:04:30;55.90;;;52.37;;
16804;SDS011;8520;50.102;20.010;2023-05-24T22:06:58;55.87;;;52.17;;
16804;SDS011;8520;50.102;20.010;2023-05-24T22:09:26;55.53;;;52.03;;
16804;SDS011;8520;50.102;20.010;2023-05-24T22:11:54;54.53;;;51.13;;
16804;SDS011;8520;50.102;20.010;2023-05-24T22:14:23;53.03;;;49.77;;
16804;SDS011;8520;50.102;20.010;2023-05-24T22:16:52;55.27;;;51.50;;
16804;SDS011;8520;50.102;20.010;2023-05-24T22:19:20;53.70;;;50.60;;
16804;SDS011;8520;50.102;20.010;2023-05-24T22:22:05;54.30;;;50.87;;
16804;SDS011;8520;50.102;20.010;2023-05-24T22:24:33;53.87;;;50.57;;
16804;SDS011;8520;50.102;20.010;2023-05-24T22:27:01;54.10;;;50.77;;
16804;SDS011;8520;50.102;20.010;2023-05-24T22:29:29;54.97;;;51.67;;
16804;SDS011;8520;50.102;20.010;2023-05-24T22:31:59;56.63;;;53.13;;
16804;SDS011;8520;50.102;20.010;2023-05-24T22:34:27;55.53;;;52.20;;
16804;SDS011;8520;50.102;20.010;2023-05-24T22:36:56;57.47;;;53.50;;
16804;SDS011;8520;50.102;20.010;2023-05-24T22:39:24;56.97;;;53.00;;
16804;SDS011;8520;50.102;20.010;2023-05-24T22:41:52;56.33;;;52.43;;
16804;SDS011;8520;50.102;20.010;2023-05-24T22:44:20;58.00;;;53.93;;
16804;SDS011;8520;50.102;20.010;2023-05-24T22:46:48;57.17;;;53.40;;
16804;SDS011;8520;50.102;20.010;2023-05-24T22:49:20;56.20;;;52.50;;
16804;SDS011;8520;50.102;20.010;2023-05-24T22:51:49;57.17;;;53.40;;
16804;SDS011;8520;50.102;20.010;2023-05-24T22:54:18;57.27;;;53.23;;
16804;SDS011;8520;50.102;20.010;2023-05-24T22:56:47;56.03;;;52.37;;
16804;SDS011;8520;50.102;20.010;2023-05-24T22:59:15;56.50;;;52.97;;
16804;SDS011;8520;50.102;20.010;2023-05-24T23:01:43;56.33;;;52.57;;
16804;SDS011;8520;50.102;20.010;2023-05-24T23:04:11;57.77;;;53.97;;
16804;SDS011;8520;50.102;20.010;2023-05-24T23:06:45;58.47;;;54.67;;
16804;SDS011;8520;50.102;20.010;2023-05-24T23:09:14;58.83;;;54.83;;
16804;SDS011;8520;50.102;20.010;2023-05-24T23:11:43;57.33;;;53.67;;
16804;SDS011;8520;50.102;20.010;2023-05-24T23:14:11;58.87;;;55.00;;
16804;SDS011;8520;50.102;20.010;2023-05-24T23:16:39;58.67;;;54.73;;
16804;SDS011;8520;50.102;20.010;2023-05-24T23:19:12;58.70;;;54.73;;
16804;SDS011;8520;50.102;20.010;2023-05-24T23:21:45;58.03;;;54.23;;
16804;SDS011;8520;50.102;20.010;2023-05-24T23:24:13;59.37;;;54.93;;
16804;SDS011;8520;50.102;20.010;2023-05-24T23:26:42;58.80;;;54.60;;
16804;SDS011;8520;50.102;20.010;2023-05-24T23:29:10;57.67;;;53.83;;
16804;SDS011;8520;50.102;20.010;2023-05-24T23:31:38;57.40;;;53.80;;
16804;SDS011;8520;50.102;20.010;2023-05-24T23:34:06;58.70;;;54.57;;
16804;SDS011;8520;50.102;20.010;2023-05-24T23:36:35;60.50;;;56.53;;
16804;SDS011;8520;50.102;20.010;2023-05-24T23:39:04;59.13;;;55.53;;
16804;SDS011;8520;50.102;20.010;2023-05-24T23:41:32;58.37;;;54.77;;
16804;SDS011;8520;50.102;20.010;2023-05-24T23:44:00;58.80;;;54.80;;
16804;SDS011;8520;50.102;20.010;2023-05-24T23:46:28;57.77;;;53.60;;
16804;SDS011;8520;50.102;20.010;2023-05-24T23:48:56;57.93;;;54.00;;
16804;SDS011;8520;50.102;20.010;2023-05-24T23:51:25;56.73;;;53.07;;
16804;SDS011;8520;50.102;20.010;2023-05-24T23:53:53;56.13;;;52.53;;
16804;SDS011;8520;50.102;20.010;2023-05-24T23:56:22;55.87;;;52.33;;
16804;SDS011;8520;50.102;20.010;2023-05-24T23:58:50;58.07;;;54.37;;
